createdAt,value
2022-08-23T00:02:29.017Z,23.42
2022-08-23T00:05:09.368Z,23.44
2022-08-23T00:07:40.569Z,23.34
2022-08-23T00:10:09.727Z,23.28
2022-08-23T00:12:38.121Z,23.07
2022-08-23T00:15:07.538Z,23.41
2022-08-23T00:17:36.535Z,23.35
2022-08-23T00:20:05.168Z,23.15
2022-08-23T00:22:32.892Z,23.08
2022-08-23T00:25:01.942Z,23.15
2022-08-23T00:27:29.897Z,22.76
2022-08-23T00:29:58.596Z,23.01
2022-08-23T00:32:28.532Z,23.30
2022-08-23T00:34:56.427Z,23.39
2022-08-23T00:37:24.805Z,23.53
2022-08-23T00:39:52.741Z,23.38
2022-08-23T00:42:48.879Z,23.16
2022-08-23T00:45:37.452Z,23.37
2022-08-23T00:48:06.940Z,23.26
2022-08-23T00:50:39.527Z,22.99
2022-08-23T00:53:11.996Z,23.10
2022-08-23T00:55:42.736Z,23.04
2022-08-23T00:58:12.616Z,23.32
2022-08-23T01:00:40.467Z,23.51
2022-08-23T01:03:11.160Z,23.15
2022-08-23T01:05:46.127Z,23.43
2022-08-23T01:08:13.828Z,23.31
2022-08-23T01:10:44.297Z,23.30
2022-08-23T01:13:19.464Z,23.57
2022-08-23T01:15:49.664Z,23.82
2022-08-23T01:18:20.515Z,23.77
2022-08-23T01:20:52.375Z,23.91
2022-08-23T01:23:29.153Z,23.89
2022-08-23T01:25:58.185Z,23.89
2022-08-23T01:28:25.989Z,24.03
2022-08-23T01:30:53.869Z,24.02
2022-08-23T01:33:22.200Z,23.93
2022-08-23T01:35:52.816Z,23.89
2022-08-23T01:38:20.848Z,23.72
2022-08-23T01:40:50.205Z,23.75
2022-08-23T01:43:19.754Z,23.66
2022-08-23T01:45:47.937Z,23.90
2022-08-23T01:48:16.562Z,23.65
2022-08-23T01:50:45.164Z,23.10
2022-08-23T01:53:13.213Z,22.97
2022-08-23T01:55:42.198Z,23.35
2022-08-23T01:58:11.351Z,23.28
2022-08-23T02:00:41.365Z,23.51
2022-08-23T02:03:10.920Z,23.73
2022-08-23T02:05:40.279Z,23.59
2022-08-23T02:08:26.636Z,23.56
2022-08-23T02:10:54.841Z,23.66
2022-08-23T02:13:24.284Z,23.49
2022-08-23T02:15:52.417Z,23.54
2022-08-23T02:18:21.803Z,23.27
2022-08-23T02:20:51.363Z,23.19
2022-08-23T02:23:20.264Z,22.81
2022-08-23T02:25:48.109Z,22.92
2022-08-23T02:28:15.857Z,22.86
2022-08-23T02:30:46.569Z,22.92
2022-08-23T02:33:15.888Z,23.08
2022-08-23T02:35:45.117Z,22.85
2022-08-23T02:38:13.649Z,23.14
2022-08-23T02:40:42.284Z,22.62
2022-08-23T02:43:11.331Z,22.85
2022-08-23T02:45:42.232Z,23.04
2022-08-23T02:48:13.389Z,23.03
2022-08-23T02:50:43.523Z,23.34
2022-08-23T02:53:11.525Z,23.07
2022-08-23T02:55:39.245Z,23.25
2022-08-23T02:58:07.031Z,22.65
2022-08-23T03:00:34.754Z,22.82
2022-08-23T03:03:04.430Z,22.91
2022-08-23T03:05:33.818Z,23.29
2022-08-23T03:08:03.075Z,23.12
2022-08-23T03:10:31.079Z,22.95
2022-08-23T03:12:58.888Z,22.74
2022-08-23T03:15:26.705Z,22.68
2022-08-23T03:17:54.448Z,22.30
2022-08-23T03:20:22.551Z,22.52
2022-08-23T03:22:54.757Z,22.30
2022-08-23T03:25:22.935Z,22.64
2022-08-23T03:27:50.736Z,22.61
2022-08-23T03:30:19.928Z,22.57
2022-08-23T03:32:49.180Z,22.35
2022-08-23T03:35:17.521Z,22.45
2022-08-23T03:37:45.244Z,22.69
2022-08-23T03:40:14.612Z,22.72
2022-08-23T03:42:42.360Z,22.71
2022-08-23T03:45:10.893Z,22.97
2022-08-23T03:47:39.167Z,23.06
2022-08-23T03:50:07.818Z,22.75
2022-08-23T03:52:35.536Z,22.35
2022-08-23T03:55:03.248Z,22.58
2022-08-23T03:57:32.325Z,22.66
2022-08-23T04:00:00.496Z,22.77
2022-08-23T04:02:28.472Z,22.88
2022-08-23T04:04:57.888Z,23.02
2022-08-23T04:07:25.734Z,22.87
2022-08-23T04:09:55.299Z,22.81
2022-08-23T04:12:23.343Z,22.36
2022-08-23T04:14:53.378Z,22.88
2022-08-23T04:17:21.536Z,22.78
2022-08-23T04:19:49.376Z,21.94
2022-08-23T04:22:19.376Z,22.20
2022-08-23T04:24:47.920Z,21.77
2022-08-23T04:27:15.722Z,21.66
2022-08-23T04:29:43.452Z,22.13
2022-08-23T04:32:12.717Z,22.17
2022-08-23T04:34:42.241Z,22.26
2022-08-23T04:37:13.626Z,22.07
2022-08-23T04:40:00.986Z,22.19
2022-08-23T04:42:32.172Z,21.93
2022-08-23T04:45:01.135Z,21.35
2022-08-23T04:47:34.732Z,21.71
2022-08-23T04:50:04.154Z,21.88
2022-08-23T04:52:31.916Z,21.65
2022-08-23T04:54:59.686Z,21.55
2022-08-23T04:57:27.400Z,21.48
2022-08-23T04:59:55.157Z,21.25
2022-08-23T05:02:22.899Z,21.22
2022-08-23T05:04:51.950Z,21.60
2022-08-23T05:07:19.639Z,21.24
2022-08-23T05:09:59.621Z,20.91
2022-08-23T05:12:28.113Z,21.10
2022-08-23T05:14:55.796Z,20.89
2022-08-23T05:17:23.544Z,20.66
2022-08-23T05:19:52.713Z,20.81
2022-08-23T05:22:20.514Z,20.60
2022-08-23T05:24:48.239Z,20.60
2022-08-23T05:27:15.970Z,21.06
2022-08-23T05:29:43.665Z,20.92
2022-08-23T05:32:11.598Z,20.88
2022-08-23T05:34:39.384Z,20.83
2022-08-23T05:37:08.465Z,20.80
2022-08-23T05:39:37.346Z,20.77
2022-08-23T05:42:05.588Z,20.80
2022-08-23T05:44:36.398Z,20.50
2022-08-23T05:47:10.780Z,20.69
2022-08-23T05:49:39.569Z,20.74
2022-08-23T05:52:11.595Z,20.95
2022-08-23T05:54:39.786Z,20.92
2022-08-23T05:57:07.585Z,20.93
2022-08-23T05:59:35.485Z,20.98
2022-08-23T06:02:04.586Z,21.06
2022-08-23T06:04:32.911Z,20.96
2022-08-23T06:07:00.656Z,20.85
2022-08-23T06:09:29.741Z,21.08
2022-08-23T06:11:58.589Z,20.88
2022-08-23T06:14:26.420Z,20.91
2022-08-23T06:16:56.201Z,21.11
2022-08-23T06:19:24.820Z,21.20
2022-08-23T06:21:53.099Z,21.26
2022-08-23T06:24:21.572Z,21.16
2022-08-23T06:26:50.649Z,21.37
2022-08-23T06:29:19.937Z,21.26
2022-08-23T06:31:49.979Z,21.52
2022-08-23T06:34:21.128Z,21.53
2022-08-23T06:36:49.643Z,21.72
2022-08-23T06:39:18.805Z,21.50
2022-08-23T06:41:48.442Z,21.70
2022-08-23T06:44:18.440Z,21.50
2022-08-23T06:46:47.851Z,21.55
2022-08-23T06:49:16.132Z,21.73
2022-08-23T06:51:46.762Z,21.56
2022-08-23T06:54:16.240Z,21.74
2022-08-23T06:56:44.616Z,21.64
2022-08-23T06:59:12.385Z,21.79
2022-08-23T07:01:46.225Z,21.81
2022-08-23T07:04:17.415Z,21.80
2022-08-23T07:06:45.455Z,21.99
2022-08-23T07:09:13.476Z,21.75
2022-08-23T07:11:41.862Z,21.94
2022-08-23T07:14:12.219Z,22.35
2022-08-23T07:16:44.903Z,22.21
2022-08-23T07:19:13.728Z,22.32
2022-08-23T07:21:41.891Z,22.64
2022-08-23T07:24:10.055Z,22.54
2022-08-23T07:26:39.143Z,22.58
2022-08-23T07:29:07.277Z,22.60
2022-08-23T07:31:36.723Z,22.66
2022-08-23T07:34:06.746Z,22.86
2022-08-23T07:36:35.975Z,22.75
2022-08-23T07:39:05.408Z,22.81
2022-08-23T07:41:33.285Z,22.99
2022-08-23T07:44:04.410Z,23.31
2022-08-23T07:46:33.635Z,23.36
2022-08-23T07:49:04.301Z,23.66
2022-08-23T07:51:34.720Z,23.69
2022-08-23T07:54:03.482Z,23.85
2022-08-23T07:59:03.560Z,24.25
2022-08-23T08:01:31.747Z,24.36
2022-08-23T08:04:03.540Z,24.19
2022-08-23T08:06:34.997Z,24.39
2022-08-23T08:09:05.936Z,24.49
2022-08-23T08:11:35.706Z,24.68
2022-08-23T08:14:05.365Z,24.78
2022-08-23T08:16:36.204Z,24.86
2022-08-23T08:19:08.014Z,24.76
2022-08-23T08:21:39.721Z,24.83
2022-08-23T08:24:12.820Z,25.00
2022-08-23T08:26:40.977Z,25.08
2022-08-23T08:29:11.856Z,25.24
2022-08-23T08:31:40.712Z,25.28
2022-08-23T08:34:08.725Z,25.32
2022-08-23T08:36:39.854Z,25.47
2022-08-23T08:39:10.441Z,25.48
2022-08-23T08:41:51.206Z,25.53
2022-08-23T08:44:40.293Z,25.56
2022-08-23T08:47:11.248Z,25.56
2022-08-23T08:49:41.473Z,25.60
2022-08-23T08:52:16.399Z,25.68
2022-08-23T08:54:48.299Z,25.49
2022-08-23T08:57:24.544Z,25.74
2022-08-23T08:59:57.692Z,25.95
2022-08-23T09:02:33.119Z,26.08
2022-08-23T09:05:03.111Z,25.89
2022-08-23T09:07:42.116Z,26.00
2022-08-23T09:10:31.622Z,26.17
2022-08-23T09:13:12.050Z,26.14
2022-08-23T09:15:42.770Z,26.21
2022-08-23T09:18:13.531Z,26.33
2022-08-23T09:20:43.329Z,26.34
2022-08-23T09:23:15.653Z,26.25
2022-08-23T09:25:52.633Z,26.36
2022-08-23T09:28:20.427Z,26.61
2022-08-23T09:30:51.261Z,26.47
2022-08-23T09:33:21.435Z,26.55
2022-08-23T09:36:06.449Z,26.47
2022-08-23T09:38:35.636Z,26.58
2022-08-23T09:41:19.809Z,26.45
2022-08-23T09:43:49.840Z,26.49
2022-08-23T09:46:26.727Z,26.63
2022-08-23T09:48:58.105Z,26.77
2022-08-23T09:51:28.388Z,26.76
2022-08-23T09:54:08.375Z,26.89
2022-08-23T09:56:39.899Z,26.83
2022-08-23T09:59:22.236Z,26.82
2022-08-23T10:01:56.371Z,27.09
2022-08-23T10:04:26.346Z,26.98
2022-08-23T10:06:54.122Z,27.03
2022-08-23T10:09:28.666Z,26.80
2022-08-23T10:11:57.585Z,27.05
2022-08-23T10:14:30.054Z,27.17
2022-08-23T10:17:04.849Z,27.12
2022-08-23T10:19:41.650Z,27.15
2022-08-23T10:22:16.349Z,27.15
2022-08-23T10:24:49.668Z,27.38
2022-08-23T10:27:45.287Z,27.35
2022-08-23T10:30:14.593Z,27.37
2022-08-23T10:33:02.564Z,27.40
2022-08-23T10:35:38.468Z,27.65
2022-08-23T10:38:32.710Z,27.49
2022-08-23T10:41:05.045Z,27.58
2022-08-23T10:43:38.829Z,27.28
2022-08-23T10:46:08.437Z,27.48
2022-08-23T10:48:40.600Z,27.52
2022-08-23T10:51:13.033Z,27.54
2022-08-23T10:53:46.646Z,27.54
2022-08-23T10:56:19.157Z,27.58
2022-08-23T10:58:49.431Z,27.62
2022-08-23T11:01:21.776Z,27.77
2022-08-23T11:03:58.069Z,27.87
2022-08-23T11:06:47.899Z,27.84
2022-08-23T11:09:38.719Z,27.86
2022-08-23T11:12:27.387Z,27.89
2022-08-23T11:15:11.184Z,27.65
2022-08-23T11:17:44.833Z,27.85
2022-08-23T11:20:14.961Z,27.98
2022-08-23T11:23:16.261Z,27.78
2022-08-23T11:25:45.853Z,28.00
2022-08-23T11:28:40.226Z,28.03
2022-08-23T11:31:22.558Z,27.96
2022-08-23T11:33:52.997Z,28.14
2022-08-23T11:36:23.744Z,28.25
2022-08-23T11:39:07.881Z,28.19
2022-08-23T11:41:36.588Z,28.08
2022-08-23T11:44:24.553Z,28.25
2022-08-23T11:47:00.072Z,28.18
2022-08-23T11:50:01.315Z,28.39
2022-08-23T11:52:47.316Z,28.60
2022-08-23T11:55:25.106Z,28.44
2022-08-23T11:58:02.821Z,28.25
2022-08-23T12:00:54.305Z,28.49
2022-08-23T12:03:25.562Z,28.48
2022-08-23T12:06:16.007Z,28.69
2022-08-23T12:08:50.857Z,28.64
2022-08-23T12:11:19.899Z,28.41
2022-08-23T12:14:02.565Z,28.57
2022-08-23T12:16:38.648Z,28.54
2022-08-23T12:19:22.192Z,28.57
2022-08-23T12:21:55.860Z,28.63
2022-08-23T12:24:26.700Z,28.51
2022-08-23T12:27:01.568Z,28.68
2022-08-23T12:29:36.193Z,28.84
2022-08-23T12:32:11.232Z,28.65
2022-08-23T12:34:47.473Z,28.75
2022-08-23T12:37:23.030Z,28.69
2022-08-23T12:39:52.847Z,28.64
2022-08-23T12:42:27.027Z,28.84
2022-08-23T12:45:05.247Z,28.83
2022-08-23T12:47:38.466Z,28.75
2022-08-23T12:50:20.353Z,28.77
2022-08-23T12:52:58.111Z,28.70
2022-08-23T12:55:31.760Z,28.70
2022-08-23T12:58:00.145Z,28.65
2022-08-23T13:00:31.406Z,28.76
2022-08-23T13:03:03.513Z,28.94
2022-08-23T13:05:37.179Z,28.94
2022-08-23T13:08:08.918Z,28.96
2022-08-23T13:10:39.221Z,28.95
2022-08-23T13:13:11.533Z,28.93
2022-08-23T13:15:46.327Z,28.95
2022-08-23T13:18:26.230Z,28.92
2022-08-23T13:21:18.443Z,28.92
2022-08-23T13:23:47.865Z,28.88
2022-08-23T13:26:37.758Z,28.89
2022-08-23T13:29:12.430Z,28.99
2022-08-23T13:31:56.362Z,29.15
2022-08-23T13:34:36.917Z,28.99
2022-08-23T13:37:17.853Z,29.08
2022-08-23T13:39:47.896Z,29.15
2022-08-23T13:42:15.917Z,29.13
2022-08-23T13:44:44.371Z,29.20
2022-08-23T13:47:23.317Z,29.28
2022-08-23T13:49:52.749Z,29.07
2022-08-23T13:55:08.507Z,29.23
2022-08-23T13:57:40.128Z,29.04
2022-08-23T14:00:10.802Z,29.15
2022-08-23T14:02:39.264Z,29.14
2022-08-23T14:05:09.598Z,29.21
2022-08-23T14:07:37.458Z,29.13
2022-08-23T14:10:05.910Z,29.18
2022-08-23T14:12:35.049Z,29.04
2022-08-23T14:15:03.513Z,29.25
2022-08-23T14:17:32.842Z,29.17
2022-08-23T14:22:52.356Z,28.99
2022-08-23T14:25:20.421Z,29.12
2022-08-23T14:27:49.358Z,28.98
2022-08-23T14:30:24.693Z,29.09
2022-08-23T14:32:58.028Z,29.27
2022-08-23T14:35:25.787Z,29.09
2022-08-23T14:38:03.814Z,29.15
2022-08-23T14:40:31.957Z,29.19
2022-08-23T14:42:59.768Z,29.13
2022-08-23T14:45:27.680Z,29.26
2022-08-23T14:47:55.448Z,29.27
2022-08-23T14:50:23.431Z,29.23
2022-08-23T14:52:51.202Z,29.17
2022-08-23T14:55:24.735Z,29.22
2022-08-23T14:57:52.787Z,29.31
2022-08-23T15:00:21.034Z,29.22
2022-08-23T15:02:50.063Z,29.18
2022-08-23T15:05:18.107Z,29.25
2022-08-23T15:07:46.011Z,29.24
2022-08-23T15:13:27.391Z,29.32
2022-08-23T15:15:53.020Z,29.30
2022-08-23T15:18:21.756Z,29.23
2022-08-23T15:20:49.489Z,29.31
2022-08-23T15:23:21.032Z,29.36
2022-08-23T15:25:49.956Z,29.47
2022-08-23T15:28:20.937Z,29.39
2022-08-23T15:30:50.038Z,29.43
2022-08-23T15:33:18.660Z,29.40
2022-08-23T15:35:51.661Z,29.41
2022-08-23T15:38:20.313Z,29.47
2022-08-23T15:40:49.704Z,29.20
2022-08-23T15:43:19.017Z,29.26
2022-08-23T15:45:46.881Z,29.30
2022-08-23T15:48:17.818Z,29.29
2022-08-23T15:50:47.634Z,29.38
2022-08-23T15:53:15.827Z,29.28
2022-08-23T15:55:45.068Z,29.39
2022-08-23T15:58:15.663Z,29.37
2022-08-23T16:00:45.085Z,29.28
2022-08-23T16:03:19.044Z,29.31
2022-08-23T16:05:49.888Z,29.40
2022-08-23T16:08:20.804Z,29.35
2022-08-23T16:10:48.564Z,29.08
2022-08-23T16:13:16.283Z,29.07
2022-08-23T16:15:45.488Z,28.92
2022-08-23T16:18:13.816Z,29.04
2022-08-23T16:20:41.888Z,29.21
2022-08-23T16:23:09.772Z,29.16
2022-08-23T16:25:37.897Z,29.02
2022-08-23T16:28:07.888Z,29.16
2022-08-23T16:30:36.881Z,29.12
2022-08-23T16:33:06.664Z,29.33
2022-08-23T16:35:34.366Z,29.21
2022-08-23T16:38:02.221Z,29.13
2022-08-23T16:40:30.138Z,29.17
2022-08-23T16:42:58.163Z,29.26
2022-08-23T16:45:26.490Z,29.18
2022-08-23T16:47:54.856Z,29.17
2022-08-23T16:50:23.961Z,29.04
2022-08-23T16:52:51.692Z,29.07
2022-08-23T16:55:19.611Z,29.00
2022-08-23T16:57:47.888Z,28.93
2022-08-23T17:00:16.144Z,28.94
2022-08-23T17:02:44.173Z,29.04
2022-08-23T17:05:15.276Z,29.12
2022-08-23T17:07:44.535Z,29.10
2022-08-23T17:10:14.243Z,28.88
2022-08-23T17:12:46.975Z,28.99
2022-08-23T17:15:18.880Z,28.94
2022-08-23T17:17:48.680Z,28.92
2022-08-23T17:20:16.983Z,28.91
2022-08-23T17:22:46.108Z,28.93
2022-08-23T17:25:15.366Z,28.86
2022-08-23T17:27:46.203Z,28.79
2022-08-23T17:30:16.966Z,28.91
2022-08-23T17:32:44.981Z,28.74
2022-08-23T17:35:15.049Z,28.71
2022-08-23T17:37:43.659Z,28.62
2022-08-23T17:40:16.270Z,28.81
2022-08-23T17:42:49.715Z,28.56
2022-08-23T17:45:19.027Z,28.52
2022-08-23T17:47:47.369Z,28.52
2022-08-23T17:50:15.554Z,28.60
2022-08-23T17:52:43.296Z,28.55
2022-08-23T17:55:11.040Z,28.81
2022-08-23T17:57:41.637Z,28.72
2022-08-23T18:00:11.333Z,28.48
2022-08-23T18:02:39.112Z,28.76
2022-08-23T18:05:07.836Z,28.64
2022-08-23T18:07:35.595Z,28.68
2022-08-23T18:10:07.012Z,28.77
2022-08-23T18:12:35.069Z,28.74
2022-08-23T18:15:07.363Z,28.69
2022-08-23T18:17:35.752Z,28.72
2022-08-23T18:20:08.148Z,28.75
2022-08-23T18:22:37.383Z,28.60
2022-08-23T18:25:05.613Z,28.64
2022-08-23T18:27:51.084Z,28.68
2022-08-23T18:30:20.222Z,28.57
2022-08-23T18:32:47.997Z,28.50
2022-08-23T18:35:15.785Z,28.43
2022-08-23T18:37:44.260Z,28.52
2022-08-23T18:40:12.989Z,28.44
2022-08-23T18:42:41.292Z,28.21
2022-08-23T18:45:10.189Z,28.30
2022-08-23T18:47:39.636Z,28.11
2022-08-23T18:50:09.512Z,28.06
2022-08-23T18:52:37.374Z,28.04
2022-08-23T18:55:06.228Z,28.19
2022-08-23T18:57:34.108Z,28.13
2022-08-23T19:00:03.028Z,28.23
2022-08-23T19:02:30.864Z,27.91
2022-08-23T19:04:59.972Z,28.18
2022-08-23T19:07:27.665Z,28.17
2022-08-23T19:09:55.366Z,28.23
2022-08-23T19:12:23.151Z,27.96
2022-08-23T19:14:50.915Z,28.12
2022-08-23T19:17:18.605Z,27.99
2022-08-23T19:19:46.292Z,27.94
2022-08-23T19:22:15.457Z,27.90
2022-08-23T19:24:43.324Z,27.77
2022-08-23T19:27:11.045Z,27.84
2022-08-23T19:29:38.779Z,27.89
2022-08-23T19:32:06.861Z,27.68
2022-08-23T19:34:35.528Z,27.71
2022-08-23T19:37:04.999Z,27.73
2022-08-23T19:39:39.940Z,27.22
2022-08-23T19:42:11.575Z,27.41
2022-08-23T19:44:39.709Z,27.68
2022-08-23T19:47:08.317Z,27.62
2022-08-23T19:49:48.361Z,27.53
2022-08-23T19:52:16.254Z,27.67
2022-08-23T19:54:45.325Z,27.73
2022-08-23T19:57:13.380Z,27.46
2022-08-23T19:59:41.240Z,27.24
2022-08-23T20:02:10.311Z,27.22
2022-08-23T20:04:38.132Z,27.02
2022-08-23T20:07:05.925Z,27.27
2022-08-23T20:09:34.710Z,27.07
2022-08-23T20:12:04.313Z,27.18
2022-08-23T20:14:34.000Z,27.16
2022-08-23T20:17:07.180Z,27.20
2022-08-23T20:19:35.481Z,27.16
2022-08-23T20:22:18.063Z,27.15
2022-08-23T20:24:52.401Z,27.06
2022-08-23T20:27:24.108Z,27.07
2022-08-23T20:29:59.672Z,27.15
2022-08-23T20:32:27.604Z,27.25
2022-08-23T20:34:55.347Z,26.98
2022-08-23T20:37:23.104Z,27.05
2022-08-23T20:39:52.141Z,26.67
2022-08-23T20:42:20.053Z,26.66
2022-08-23T20:44:49.259Z,26.73
2022-08-23T20:47:17.183Z,26.77
2022-08-23T20:49:45.105Z,26.78
2022-08-23T20:52:16.564Z,26.83
2022-08-23T20:54:44.856Z,26.87
2022-08-23T20:57:12.711Z,26.82
2022-08-23T20:59:44.454Z,26.66
2022-08-23T21:02:16.026Z,26.41
2022-08-23T21:04:43.796Z,26.58
2022-08-23T21:07:14.857Z,26.57
2022-08-23T21:09:42.568Z,26.42
2022-08-23T21:12:10.327Z,26.30
2022-08-23T21:14:38.040Z,26.59
2022-08-23T21:17:07.481Z,26.60
2022-08-23T21:19:37.948Z,26.37
2022-08-23T21:22:05.784Z,26.40
2022-08-23T21:24:33.893Z,26.20
2022-08-23T21:27:03.233Z,26.34
2022-08-23T21:29:38.444Z,26.05
2022-08-23T21:32:08.089Z,26.30
2022-08-23T21:34:37.153Z,26.38
2022-08-23T21:37:07.252Z,26.37
2022-08-23T21:39:35.189Z,26.23
2022-08-23T21:42:05.961Z,26.18
2022-08-23T21:44:43.685Z,26.27
2022-08-23T21:47:11.487Z,25.95
2022-08-23T21:49:40.847Z,26.14
2022-08-23T21:52:08.536Z,26.17
2022-08-23T21:54:39.173Z,26.15
2022-08-23T21:57:09.305Z,26.18
2022-08-23T21:59:37.488Z,26.18
2022-08-23T22:02:05.795Z,25.68
2022-08-23T22:04:33.713Z,25.91
2022-08-23T22:07:04.053Z,25.94
2022-08-23T22:09:32.072Z,25.91
2022-08-23T22:12:02.973Z,25.64
2022-08-23T22:14:31.939Z,25.61
2022-08-23T22:16:59.960Z,25.84
2022-08-23T22:19:28.737Z,25.86
2022-08-23T22:21:56.516Z,25.82
2022-08-23T22:24:26.428Z,25.80
2022-08-23T22:26:56.316Z,25.36
2022-08-23T22:29:24.327Z,25.29
2022-08-23T22:31:52.091Z,25.47
2022-08-23T22:34:19.813Z,24.98
2022-08-23T22:36:52.174Z,24.88
2022-08-23T22:39:20.919Z,25.36
2022-08-23T22:41:50.676Z,25.04
2022-08-23T22:44:19.301Z,25.17
2022-08-23T22:46:47.167Z,24.61
2022-08-23T22:49:14.963Z,24.76
2022-08-23T22:51:43.567Z,24.96
2022-08-23T22:54:12.288Z,25.07
2022-08-23T22:56:42.419Z,25.43
2022-08-23T22:59:11.842Z,25.73
2022-08-23T23:01:41.892Z,25.85
2022-08-23T23:04:13.928Z,25.97
2022-08-23T23:06:42.287Z,25.97
2022-08-23T23:09:12.809Z,26.01
2022-08-23T23:11:41.166Z,26.04
2022-08-23T23:14:11.564Z,26.03
2022-08-23T23:16:39.921Z,26.02
2022-08-23T23:19:25.728Z,26.05
2022-08-23T23:21:55.712Z,25.95
2022-08-23T23:24:25.689Z,25.85
2022-08-23T23:26:53.941Z,25.84
2022-08-23T23:29:23.128Z,25.66
2022-08-23T23:31:51.088Z,25.70
2022-08-23T23:34:18.827Z,25.59
2022-08-23T23:36:46.796Z,25.71
2022-08-23T23:39:15.848Z,25.63
2022-08-23T23:41:44.171Z,25.59
2022-08-23T23:44:11.945Z,25.58
2022-08-23T23:46:43.403Z,25.65
2022-08-23T23:49:13.089Z,25.64
2022-08-23T23:51:41.463Z,25.59
2022-08-23T23:54:09.216Z,25.61
2022-08-23T23:56:36.932Z,25.39
2022-08-23T23:59:04.865Z,25.13
